KJAS/JAS METAR and TAF weather

Enter ICAO airport designator
Station Type Date Time Source
KJAS METAR 2022/01/18 06:15 UTC NOAA

KJAS 180615Z AUTO 00000KT 10SM CLR 02/02 A3012 RMK AO2


Station Type Date Time Source
KJAS Decoded METAR 2022/01/18 06:15 UTC NOAA

Jasper, Jasper County-Bell Field Airport, TX, United States (KJAS) 30-53-08N 094-02-05W
Jan 18, 2022 - 01:15 AM EST / 2022.01.18 0615 UTC
Wind: Calm:0
Visibility: 10 mile(s):0
Sky conditions: clear
Temperature: 35 F (2 C)
Dew Point: 35 F (2 C)
Relative Humidity: 100%
Pressure (altimeter): 30.12 in. Hg (1019 hPa)
ob: KJAS 180615Z AUTO 00000KT 10SM CLR 02/02 A3012 RMK AO2
cycle: 6

Station Type Date Time Source
KJAS TAF UTC NOAA

Error!

Example: see airport list